createdAt,value
2019-04-26T00:01:23.127Z,97543.35
2019-04-26T00:03:49.139Z,97540.06
2019-04-26T00:06:16.574Z,97546.37
2019-04-26T00:08:42.984Z,97548.61
2019-04-26T00:11:09.640Z,97543.31
2019-04-26T00:13:38.587Z,97548.73
2019-04-26T00:16:04.942Z,97544.32
2019-04-26T00:18:30.842Z,97541.00
2019-04-26T00:20:57.089Z,97546.91
2019-04-26T00:23:23.092Z,97540.38
2019-04-26T00:25:49.223Z,97533.34
2019-04-26T00:28:15.305Z,97523.14
2019-04-26T00:30:41.555Z,97518.50
2019-04-26T00:33:07.620Z,97527.47
2019-04-26T00:35:33.526Z,97532.39
2019-04-26T00:37:59.433Z,97534.66
2019-04-26T00:40:25.851Z,97543.86
2019-04-26T00:42:53.311Z,97552.95
2019-04-26T00:45:20.982Z,97550.13
2019-04-26T00:47:49.512Z,97544.75
2019-04-26T00:50:15.722Z,97546.47
2019-04-26T00:52:42.488Z,97542.45
2019-04-26T00:55:09.967Z,97542.45
2019-04-26T00:57:36.507Z,97540.36
2019-04-26T01:00:04.476Z,97546.08
2019-04-26T01:02:30.524Z,97541.53
2019-04-26T01:04:56.546Z,97537.10
2019-04-26T01:07:23.241Z,97543.95
2019-04-26T01:09:49.288Z,97547.45
2019-04-26T01:12:16.424Z,97548.00
2019-04-26T01:14:42.779Z,97550.05
2019-04-26T01:17:08.707Z,97550.67
2019-04-26T01:19:37.206Z,97552.03
2019-04-26T01:22:06.978Z,97552.81
2019-04-26T01:24:34.235Z,97553.04
2019-04-26T01:27:02.874Z,97541.11
2019-04-26T01:29:29.483Z,97545.38
2019-04-26T01:32:05.301Z,97546.81
2019-04-26T01:34:32.797Z,97552.02
2019-04-26T01:37:00.745Z,97560.16
2019-04-26T01:39:27.897Z,97555.94
2019-04-26T01:41:54.171Z,97555.03
2019-04-26T01:44:22.997Z,97558.33
2019-04-26T01:46:49.459Z,97564.44
2019-04-26T01:49:18.557Z,97576.17
2019-04-26T01:51:51.215Z,97574.45
2019-04-26T01:54:22.469Z,97582.78
2019-04-26T01:56:52.369Z,97587.34
2019-04-26T01:59:20.989Z,97586.53
2019-04-26T02:01:48.020Z,97601.55
2019-04-26T02:04:14.062Z,97596.69
2019-04-26T02:06:40.104Z,97590.11
2019-04-26T02:09:06.644Z,97594.63
2019-04-26T02:11:33.153Z,97594.45
2019-04-26T02:14:00.100Z,97607.02
2019-04-26T02:16:27.018Z,97604.79
2019-04-26T02:18:52.971Z,97612.28
2019-04-26T02:21:19.341Z,97605.70
2019-04-26T02:23:45.862Z,97597.69
2019-04-26T02:26:13.468Z,97600.24
2019-04-26T02:28:39.416Z,97598.02
2019-04-26T02:31:05.485Z,97593.53
2019-04-26T02:33:33.311Z,97595.48
2019-04-26T02:35:59.679Z,97600.34
2019-04-26T02:38:27.939Z,97602.77
2019-04-26T02:40:53.963Z,97601.45
2019-04-26T02:43:23.372Z,97606.13
2019-04-26T02:45:50.507Z,97608.63
2019-04-26T02:48:19.898Z,97609.04
2019-04-26T02:50:52.424Z,97623.84
2019-04-26T02:53:35.367Z,97630.02
2019-04-26T02:56:15.602Z,97645.10
2019-04-26T02:58:45.279Z,97640.16
2019-04-26T03:01:11.230Z,97636.52
2019-04-26T03:03:38.139Z,97632.67
2019-04-26T03:06:05.650Z,97632.88
2019-04-26T03:08:35.824Z,97640.97
2019-04-26T03:11:06.674Z,97645.33
2019-04-26T03:13:38.078Z,97641.88
2019-04-26T03:16:08.183Z,97641.37
2019-04-26T03:18:39.454Z,97646.50
2019-04-26T03:21:37.392Z,97653.50
2019-04-26T03:24:16.290Z,97638.41
2019-04-26T03:27:07.449Z,97624.99
2019-04-26T03:29:52.562Z,97631.14
2019-04-26T03:32:25.582Z,97631.69
2019-04-26T03:35:04.321Z,97638.56
2019-04-26T03:37:36.020Z,97641.98
2019-04-26T03:40:11.895Z,97635.95
2019-04-26T03:42:42.716Z,97640.66
2019-04-26T03:45:33.018Z,97637.68
2019-04-26T03:48:24.880Z,97648.42
2019-04-26T03:51:00.630Z,97655.82
2019-04-26T03:53:35.475Z,97670.18
2019-04-26T03:56:17.205Z,97680.98
2019-04-26T03:58:46.918Z,97680.20
2019-04-26T04:01:13.369Z,97674.48
2019-04-26T04:03:43.633Z,97681.89
2019-04-26T04:06:12.587Z,97674.84
2019-04-26T04:08:51.135Z,97674.37
2019-04-26T04:11:20.947Z,97684.73
2019-04-26T04:13:53.612Z,97686.34
2019-04-26T04:16:32.486Z,97693.95
2019-04-26T04:19:07.825Z,97684.71
2019-04-26T04:22:00.577Z,97696.33
2019-04-26T04:24:32.907Z,97701.38
2019-04-26T04:27:11.604Z,97696.63
2019-04-26T04:29:55.592Z,97684.49
2019-04-26T04:32:34.557Z,97683.20
2019-04-26T04:35:06.756Z,97682.98
2019-04-26T04:37:52.659Z,97675.38
2019-04-26T04:40:07.658Z,97685.84
2019-04-26T04:42:48.101Z,97705.87
2019-04-26T04:45:27.353Z,97709.83
2019-04-26T04:48:12.431Z,97713.91
2019-04-26T04:50:43.324Z,97728.83
2019-04-26T04:53:28.688Z,97728.14
2019-04-26T04:56:20.882Z,97719.05
2019-04-26T04:58:57.497Z,97705.95
2019-04-26T05:01:39.439Z,97705.44
2019-04-26T05:04:15.108Z,97694.05
2019-04-26T05:06:57.019Z,97692.84
2019-04-26T05:09:26.945Z,97697.55
2019-04-26T05:12:05.514Z,97706.31
2019-04-26T05:14:56.508Z,97723.56
2019-04-26T05:17:46.158Z,97737.98
2019-04-26T05:20:31.065Z,97720.75
2019-04-26T05:23:10.040Z,97727.48
2019-04-26T05:25:59.699Z,97717.42
2019-04-26T05:28:35.447Z,97722.63
2019-04-26T05:31:24.477Z,97729.28
2019-04-26T05:34:14.940Z,97710.14
2019-04-26T05:37:03.112Z,97704.48
2019-04-26T05:39:38.762Z,97712.94
2019-04-26T05:42:11.651Z,97712.42
2019-04-26T05:44:44.123Z,97705.93
2019-04-26T05:47:27.208Z,97701.27
2019-04-26T05:50:05.974Z,97705.88
2019-04-26T05:52:55.746Z,97720.97
2019-04-26T05:55:46.739Z,97749.12
2019-04-26T05:58:21.984Z,97770.67
2019-04-26T06:01:14.886Z,97766.93
2019-04-26T06:03:50.873Z,97745.47
2019-04-26T06:06:39.012Z,97769.44
2019-04-26T06:09:08.929Z,97765.75
2019-04-26T06:11:44.444Z,97749.38
2019-04-26T06:14:19.969Z,97755.70
2019-04-26T06:17:01.839Z,97757.50
2019-04-26T06:19:31.753Z,97755.59
2019-04-26T06:22:13.643Z,97763.94
2019-04-26T06:25:03.391Z,97766.83
2019-04-26T06:27:33.128Z,97766.33
2019-04-26T06:30:19.011Z,97766.00
2019-04-26T06:33:20.651Z,97760.27
2019-04-26T06:35:49.893Z,97747.56
2019-04-26T06:38:44.135Z,97746.98
2019-04-26T06:41:37.632Z,97741.95
2019-04-26T06:44:13.176Z,97751.89
2019-04-26T06:47:00.108Z,97764.47
2019-04-26T06:49:38.948Z,97770.68
2019-04-26T06:52:18.043Z,97756.83
2019-04-26T06:55:13.968Z,97758.73
2019-04-26T06:58:13.108Z,97768.02
2019-04-26T07:00:45.659Z,97772.84
2019-04-26T07:03:49.172Z,97787.95
2019-04-26T07:06:19.001Z,97782.06
2019-04-26T07:08:57.362Z,97766.82
2019-04-26T07:11:21.505Z,97759.97
2019-04-26T07:14:08.178Z,97757.08
2019-04-26T07:16:53.030Z,97756.62
2019-04-26T07:19:28.789Z,97758.20
2019-04-26T07:21:58.639Z,97761.09
2019-04-26T07:24:48.528Z,97761.94
2019-04-26T07:27:31.099Z,97779.20
2019-04-26T07:30:15.498Z,97771.73
2019-04-26T07:32:51.384Z,97779.15
2019-04-26T07:35:39.051Z,97774.17
2019-04-26T07:38:15.122Z,97794.46
2019-04-26T07:41:01.629Z,97801.47
2019-04-26T07:43:53.183Z,97793.99
2019-04-26T07:46:29.042Z,97680.11
2019-04-26T07:49:32.469Z,97812.03
2019-04-26T07:52:23.762Z,97816.70
2019-04-26T07:55:06.567Z,97811.64
2019-04-26T07:57:43.317Z,97817.64
2019-04-26T08:00:18.793Z,97821.41
2019-04-26T08:02:51.255Z,97818.66
2019-04-26T08:05:32.815Z,97826.02
2019-04-26T08:08:06.892Z,97832.81
2019-04-26T08:10:39.683Z,97831.80
2019-04-26T08:13:15.290Z,97822.82
2019-04-26T08:15:45.228Z,97816.02
2019-04-26T08:18:15.803Z,97826.98
2019-04-26T08:20:48.164Z,97823.09
2019-04-26T08:23:38.119Z,97827.65
2019-04-26T08:25:48.235Z,97824.09
2019-04-26T08:28:17.906Z,97832.69
2019-04-26T08:30:47.129Z,97830.91
2019-04-26T08:33:18.075Z,97830.30
2019-04-26T08:35:48.934Z,97825.44
2019-04-26T08:38:22.317Z,97827.63
2019-04-26T08:40:43.926Z,97830.19
2019-04-26T08:43:10.931Z,97841.20
2019-04-26T08:45:40.514Z,97839.53
2019-04-26T08:48:09.373Z,97828.64
2019-04-26T08:50:36.673Z,97852.55
2019-04-26T08:53:03.574Z,97846.48
2019-04-26T08:55:33.158Z,97854.11
2019-04-26T08:58:02.993Z,97851.06
2019-04-26T09:00:32.463Z,97850.42
2019-04-26T09:03:10.991Z,97857.59
2019-04-26T09:05:32.326Z,97866.42
2019-04-26T09:07:59.145Z,97859.37
2019-04-26T09:10:28.885Z,97866.91
2019-04-26T09:12:58.588Z,97877.98
2019-04-26T09:15:40.705Z,97882.64
2019-04-26T09:18:06.974Z,97886.28
2019-04-26T09:20:32.879Z,97892.81
2019-04-26T09:23:03.842Z,97859.20
2019-04-26T09:25:30.227Z,97890.52
2019-04-26T09:27:55.749Z,97892.36
2019-04-26T09:30:33.328Z,97888.39
2019-04-26T09:32:49.901Z,97887.52
2019-04-26T09:35:16.404Z,97890.80
2019-04-26T09:37:42.349Z,97903.30
2019-04-26T09:40:10.640Z,97917.62
2019-04-26T09:42:39.279Z,97909.89
2019-04-26T09:45:06.903Z,97920.25
2019-04-26T09:47:33.113Z,97908.36
2019-04-26T09:49:59.042Z,97916.12
2019-04-26T09:52:25.153Z,97918.05
2019-04-26T09:54:51.057Z,97928.89
2019-04-26T09:57:16.985Z,97930.97
2019-04-26T09:59:42.885Z,97934.89
2019-04-26T10:02:10.831Z,97928.39
2019-04-26T10:04:36.733Z,97915.99
2019-04-26T10:07:04.068Z,97931.70
2019-04-26T10:09:30.975Z,97931.77
2019-04-26T10:11:57.068Z,97909.53
2019-04-26T10:14:24.057Z,97909.67
2019-04-26T10:16:49.998Z,97932.66
2019-04-26T10:19:16.005Z,97940.85
2019-04-26T10:21:41.950Z,97949.77
2019-04-26T10:24:08.425Z,97950.06
2019-04-26T10:26:34.733Z,97944.91
2019-04-26T10:29:00.777Z,97937.15
2019-04-26T10:31:26.711Z,97922.42
2019-04-26T10:33:54.632Z,97914.47
2019-04-26T10:36:20.739Z,97915.86
2019-04-26T10:38:46.964Z,97914.53
2019-04-26T10:41:13.043Z,97909.52
2019-04-26T10:43:39.012Z,97913.86
2019-04-26T10:46:05.032Z,97928.17
2019-04-26T10:48:31.162Z,97943.73
2019-04-26T10:50:57.179Z,97933.92
2019-04-26T10:53:25.580Z,97926.63
2019-04-26T10:55:51.504Z,97923.75
2019-04-26T10:58:17.851Z,97917.30
2019-04-26T11:00:43.835Z,97919.47
2019-04-26T11:03:09.865Z,97926.98
2019-04-26T11:05:35.760Z,97932.49
2019-04-26T11:08:01.692Z,97940.63
2019-04-26T11:10:29.042Z,97943.06
2019-04-26T11:12:55.053Z,97938.78
2019-04-26T11:15:21.091Z,97941.56
2019-04-26T11:17:49.901Z,97941.80
2019-04-26T11:20:15.085Z,97932.22
2019-04-26T11:22:41.037Z,97940.04
2019-04-26T11:25:10.404Z,97943.58
2019-04-26T11:27:36.338Z,97941.97
2019-04-26T11:30:11.701Z,97931.16
2019-04-26T11:32:33.166Z,97934.05
2019-04-26T11:35:00.470Z,97934.80
2019-04-26T11:37:26.541Z,97934.42
2019-04-26T11:39:52.805Z,97934.05
2019-04-26T11:42:18.763Z,97941.57
2019-04-26T11:44:44.949Z,97935.52
2019-04-26T11:47:10.857Z,97939.12
2019-04-26T11:49:37.404Z,97934.70
2019-04-26T11:52:04.646Z,97934.36
2019-04-26T11:54:30.598Z,97931.61
2019-04-26T11:56:57.800Z,97939.50
2019-04-26T11:59:27.093Z,97940.75
2019-04-26T12:01:51.705Z,97943.78
2019-04-26T12:04:17.636Z,97942.01
2019-04-26T12:06:43.533Z,97945.66
2019-04-26T12:09:09.734Z,97953.41
2019-04-26T12:11:35.827Z,97948.13
2019-04-26T12:14:03.953Z,97960.97
2019-04-26T12:16:29.911Z,97965.58
2019-04-26T12:18:55.911Z,97968.56
2019-04-26T12:21:22.026Z,97979.89
2019-04-26T12:23:51.314Z,97984.27
2019-04-26T12:26:17.329Z,97990.38
2019-04-26T12:28:44.011Z,97996.41
2019-04-26T12:31:09.973Z,98002.75
2019-04-26T12:33:39.027Z,98004.13
2019-04-26T12:36:03.706Z,98005.62
2019-04-26T12:38:30.092Z,98011.75
2019-04-26T12:40:56.797Z,98015.95
2019-04-26T12:43:24.596Z,98019.22
2019-04-26T12:45:52.543Z,98021.86
2019-04-26T12:48:18.682Z,98016.59
2019-04-26T12:50:44.628Z,98022.37
2019-04-26T12:53:10.526Z,98024.22
2019-04-26T12:55:36.791Z,98028.12
2019-04-26T12:58:02.906Z,98017.72
2019-04-26T13:00:32.973Z,98020.59
2019-04-26T13:02:57.063Z,98015.83
2019-04-26T13:05:23.044Z,98014.82
2019-04-26T13:07:48.946Z,98014.82
2019-04-26T13:10:14.990Z,98003.81
2019-04-26T13:12:41.146Z,98007.13
2019-04-26T13:15:37.226Z,98014.13
2019-04-26T13:18:03.222Z,98018.41
2019-04-26T13:20:30.278Z,98023.06
2019-04-26T13:22:56.395Z,98020.96
2019-04-26T13:25:26.567Z,98020.70
2019-04-26T13:27:50.155Z,98014.60
2019-04-26T13:30:16.554Z,98019.07
2019-04-26T13:32:42.632Z,98032.87
2019-04-26T13:35:11.340Z,98032.87
2019-04-26T13:37:37.027Z,98029.13
2019-04-26T13:40:05.452Z,98031.45
2019-04-26T13:42:31.583Z,98034.52
2019-04-26T13:44:58.713Z,98029.95
2019-04-26T13:47:24.621Z,98047.04
2019-04-26T13:49:52.355Z,98040.84
2019-04-26T13:52:18.525Z,98048.05
2019-04-26T13:54:44.586Z,98047.03
2019-04-26T13:57:11.240Z,98044.06
2019-04-26T13:59:37.514Z,98071.89
2019-04-26T14:02:11.431Z,98040.38
2019-04-26T14:04:32.644Z,98036.21
2019-04-26T14:06:58.544Z,98035.22
2019-04-26T14:09:24.818Z,98045.97
2019-04-26T14:11:50.734Z,98056.02
2019-04-26T14:14:18.472Z,98066.84
2019-04-26T14:16:44.445Z,98080.64
2019-04-26T14:19:15.227Z,98088.40
2019-04-26T14:21:38.490Z,98092.23
2019-04-26T14:24:04.593Z,98097.45
2019-04-26T14:29:13.849Z,98103.94
2019-04-26T14:31:40.737Z,98106.22
2019-04-26T14:34:07.141Z,98102.77
2019-04-26T14:36:35.041Z,98103.27
2019-04-26T14:39:05.991Z,98094.81
2019-04-26T14:41:31.232Z,98097.34
2019-04-26T14:43:57.876Z,98099.80
2019-04-26T14:46:23.908Z,98105.95
2019-04-26T14:49:00.981Z,98107.70
2019-04-26T14:51:18.659Z,98119.90
2019-04-26T14:53:44.896Z,98119.09
2019-04-26T14:56:11.108Z,98116.73
2019-04-26T14:58:37.197Z,98111.63
2019-04-26T15:01:03.429Z,98111.09
2019-04-26T15:03:29.386Z,98107.03
2019-04-26T15:05:55.466Z,98100.44
2019-04-26T15:08:22.614Z,98093.09
2019-04-26T15:10:57.596Z,98095.78
2019-04-26T15:13:20.772Z,98096.05
2019-04-26T15:15:46.256Z,98100.00
2019-04-26T15:18:12.464Z,98107.97
2019-04-26T15:20:38.488Z,98111.30
2019-04-26T15:23:04.489Z,98109.98
2019-04-26T15:25:31.793Z,98109.55
2019-04-26T15:27:59.443Z,98105.09
2019-04-26T15:30:25.546Z,98113.94
2019-04-26T15:32:52.908Z,98113.59
2019-04-26T15:35:18.995Z,98105.79
2019-04-26T15:37:44.977Z,98097.95
2019-04-26T15:40:12.788Z,98102.89
2019-04-26T15:42:39.018Z,98097.34
2019-04-26T15:45:05.336Z,98094.66
2019-04-26T15:47:32.054Z,98095.42
2019-04-26T15:49:59.195Z,98103.21
2019-04-26T15:52:25.258Z,98109.80
2019-04-26T15:54:52.865Z,98123.09
2019-04-26T15:57:19.372Z,98135.55
2019-04-26T15:59:45.624Z,98143.66
2019-04-26T16:02:12.454Z,98152.77
2019-04-26T16:04:38.709Z,98139.47
2019-04-26T16:07:04.659Z,98173.11
2019-04-26T16:09:32.475Z,98192.66
2019-04-26T16:11:58.782Z,98195.66
2019-04-26T16:14:31.302Z,98190.02
2019-04-26T16:16:54.103Z,98195.37
2019-04-26T16:19:20.210Z,98200.36
2019-04-26T16:21:48.253Z,98201.38
2019-04-26T16:24:14.145Z,98208.63
2019-04-26T16:26:40.076Z,98212.36
2019-04-26T16:29:06.048Z,98218.09
2019-04-26T16:31:34.128Z,98207.55
2019-04-26T16:34:06.104Z,98211.80
2019-04-26T16:36:28.102Z,98216.27
2019-04-26T16:38:56.749Z,98213.55
2019-04-26T16:41:27.161Z,98215.98
2019-04-26T16:43:53.334Z,98218.66
2019-04-26T16:46:20.648Z,98228.81
2019-04-26T16:48:46.899Z,98228.28
2019-04-26T16:51:14.438Z,98235.69
2019-04-26T16:53:58.811Z,98233.75
2019-04-26T16:56:08.598Z,98231.44
2019-04-26T16:58:38.385Z,98229.97
2019-04-26T17:01:04.536Z,98229.25
2019-04-26T17:03:30.690Z,98226.40
2019-04-26T17:06:06.709Z,98226.10
2019-04-26T17:08:26.462Z,98231.98
2019-04-26T17:10:56.776Z,98221.17
2019-04-26T17:13:24.022Z,98226.56
2019-04-26T17:15:52.095Z,98226.06
2019-04-26T17:18:19.332Z,98218.67
2019-04-26T17:20:46.714Z,98221.83
2019-04-26T17:23:12.859Z,98225.41
2019-04-26T17:25:38.802Z,98218.84
2019-04-26T17:28:04.704Z,98213.94
2019-04-26T17:30:34.538Z,98218.21
2019-04-26T17:32:58.678Z,98212.36
2019-04-26T17:35:25.394Z,98208.94
2019-04-26T17:37:52.924Z,98209.47
2019-04-26T17:40:23.620Z,98213.88
2019-04-26T17:42:47.663Z,98203.88
2019-04-26T17:45:13.809Z,98238.73
2019-04-26T17:47:41.864Z,98215.38
2019-04-26T17:50:08.108Z,98214.73
2019-04-26T17:52:37.589Z,98210.09
2019-04-26T17:55:07.806Z,98206.31
2019-04-26T17:57:36.633Z,98209.44
2019-04-26T18:00:07.958Z,98221.56
2019-04-26T18:02:41.256Z,98230.73
2019-04-26T18:05:01.568Z,98252.45
2019-04-26T18:07:40.246Z,98241.27
2019-04-26T18:09:57.074Z,98218.61
2019-04-26T18:12:22.306Z,98212.06
2019-04-26T18:14:50.409Z,98218.73
2019-04-26T18:17:17.452Z,98234.98
2019-04-26T18:19:43.482Z,98227.58
2019-04-26T18:22:12.353Z,98221.37
2019-04-26T18:24:37.351Z,98222.38
2019-04-26T18:27:03.587Z,98229.16
2019-04-26T18:29:30.467Z,98232.63
2019-04-26T18:31:59.063Z,98233.29
2019-04-26T18:34:24.881Z,98244.19
2019-04-26T18:37:02.018Z,98245.20
2019-04-26T18:39:27.408Z,98246.52
2019-04-26T18:41:54.271Z,98244.58
2019-04-26T18:44:20.168Z,98250.98
2019-04-26T18:46:47.278Z,98260.79
2019-04-26T18:49:18.161Z,98273.28
2019-04-26T18:51:43.289Z,98273.28
2019-04-26T18:54:13.357Z,98266.55
2019-04-26T18:56:40.514Z,98274.13
2019-04-26T18:59:07.311Z,98279.39
2019-04-26T19:01:34.679Z,98280.19
2019-04-26T19:04:09.554Z,98287.55
2019-04-26T19:06:31.829Z,98288.84
2019-04-26T19:09:01.532Z,98294.73
2019-04-26T19:11:25.741Z,98299.50
2019-04-26T19:13:53.133Z,98305.59
2019-04-26T19:16:21.439Z,98305.75
2019-04-26T19:18:47.824Z,98313.78
2019-04-26T19:21:14.348Z,98311.91
2019-04-26T19:23:41.554Z,98317.39
2019-04-26T19:26:09.407Z,98318.88
2019-04-26T19:28:39.924Z,98313.83
2019-04-26T19:31:06.180Z,98318.73
2019-04-26T19:33:32.222Z,98320.21
2019-04-26T19:35:58.303Z,98322.84
2019-04-26T19:38:24.341Z,98325.56
2019-04-26T19:40:52.051Z,98323.48
2019-04-26T19:43:30.297Z,98313.92
2019-04-26T19:45:47.220Z,98311.45
2019-04-26T19:48:19.212Z,98313.42
2019-04-26T19:50:48.517Z,98315.72
2019-04-26T19:53:10.340Z,98312.95
2019-04-26T19:55:37.030Z,98309.20
2019-04-26T19:58:03.196Z,98308.16
2019-04-26T20:00:29.232Z,98308.68
2019-04-26T20:02:55.349Z,98303.58
2019-04-26T20:05:22.542Z,98306.38
2019-04-26T20:07:48.683Z,98308.37
2019-04-26T20:10:14.807Z,98301.01
2019-04-26T20:12:41.337Z,98295.84
2019-04-26T20:15:07.829Z,98283.53
2019-04-26T20:17:33.815Z,98285.23
2019-04-26T20:19:59.767Z,98279.91
2019-04-26T20:22:28.667Z,98278.93
2019-04-26T20:24:57.331Z,98272.55
2019-04-26T20:27:25.244Z,98271.91
2019-04-26T20:29:51.625Z,98279.17
2019-04-26T20:32:21.182Z,98281.56
2019-04-26T20:34:49.346Z,98287.86
2019-04-26T20:37:16.204Z,98286.87
2019-04-26T20:39:41.983Z,98284.23
2019-04-26T20:42:08.109Z,98279.45
2019-04-26T20:44:48.253Z,98278.59
2019-04-26T20:47:03.354Z,98287.02
2019-04-26T20:49:29.556Z,98285.03
2019-04-26T20:51:55.653Z,98291.97
2019-04-26T20:54:22.446Z,98289.64
2019-04-26T20:56:52.509Z,98296.70
2019-04-26T20:59:20.110Z,98295.67
2019-04-26T21:01:46.617Z,98300.95
2019-04-26T21:04:33.832Z,98292.44
2019-04-26T21:06:40.523Z,98296.24
2019-04-26T21:09:07.049Z,98294.13
2019-04-26T21:11:38.192Z,98294.37
2019-04-26T21:14:07.452Z,98304.24
2019-04-26T21:16:32.344Z,98309.84
2019-04-26T21:18:59.472Z,98310.81
2019-04-26T21:21:25.465Z,98307.25
2019-04-26T21:23:51.467Z,98305.14
2019-04-26T21:26:17.515Z,98299.25
2019-04-26T21:28:43.935Z,98300.68
2019-04-26T21:31:10.155Z,98304.27
2019-04-26T21:33:38.983Z,98300.08
2019-04-26T21:36:05.831Z,98297.23
2019-04-26T21:38:33.358Z,98293.64
2019-04-26T21:41:04.386Z,98279.69
2019-04-26T21:43:29.549Z,98277.88
2019-04-26T21:46:07.306Z,98286.08
2019-04-26T21:48:24.481Z,98278.98
2019-04-26T21:50:50.539Z,98285.53
2019-04-26T21:53:16.646Z,98295.58
2019-04-26T21:55:43.465Z,98300.38
2019-04-26T21:58:09.467Z,98299.39
2019-04-26T22:00:35.453Z,98310.53
2019-04-26T22:03:03.859Z,98318.64
2019-04-26T22:05:30.080Z,98308.78
2019-04-26T22:07:56.088Z,98307.00
2019-04-26T22:10:23.489Z,98308.01
2019-04-26T22:12:49.758Z,98307.05
2019-04-26T22:15:15.786Z,98311.67
2019-04-26T22:17:41.804Z,98301.31
2019-04-26T22:20:12.912Z,98294.86
2019-04-26T22:22:37.489Z,98294.88
2019-04-26T22:25:04.975Z,98300.69
2019-04-26T22:27:31.158Z,98307.06
2019-04-26T22:29:57.160Z,98300.97
2019-04-26T22:32:23.104Z,98312.42
2019-04-26T22:34:49.278Z,98310.98
2019-04-26T22:37:28.825Z,98298.45
2019-04-26T22:39:44.398Z,98286.97
2019-04-26T22:42:11.549Z,98286.70
2019-04-26T22:44:37.574Z,98299.53
2019-04-26T22:47:04.850Z,98307.44
2019-04-26T22:49:35.060Z,98312.19
2019-04-26T22:51:58.905Z,98311.22
2019-04-26T22:54:25.902Z,98314.97
2019-04-26T22:56:52.050Z,98316.28
2019-04-26T22:59:19.699Z,98313.28
2019-04-26T23:01:48.676Z,98309.55
2019-04-26T23:04:16.267Z,98310.19
2019-04-26T23:06:42.454Z,98312.81
2019-04-26T23:09:11.621Z,98305.47
2019-04-26T23:11:39.486Z,98302.04
2019-04-26T23:14:06.113Z,98303.84
2019-04-26T23:16:33.575Z,98302.06
2019-04-26T23:18:59.773Z,98297.31
2019-04-26T23:21:26.708Z,98300.16
2019-04-26T23:23:53.454Z,98295.59
2019-04-26T23:26:19.529Z,98295.00
2019-04-26T23:28:45.453Z,98293.17
2019-04-26T23:31:13.322Z,98286.60
2019-04-26T23:33:39.449Z,98287.07
2019-04-26T23:36:05.382Z,98291.07
2019-04-26T23:38:36.148Z,98291.93
2019-04-26T23:41:01.134Z,98287.69
2019-04-26T23:43:28.136Z,98287.13
2019-04-26T23:45:54.166Z,98287.85
2019-04-26T23:48:20.199Z,98291.16
2019-04-26T23:50:46.139Z,98297.68
2019-04-26T23:53:13.855Z,98293.91
2019-04-26T23:55:42.481Z,98288.34
2019-04-26T23:58:10.690Z,98285.94
